Time;durP1;ratioP1;P1;durP2;ratioP2;P2;SDS_P1;SDS_P2;PMS_P1;PMS_P2;Temp;Humidity;BMP_temperature;BMP_pressure;BME280_temperature;BME280_humidity;BME280_pressure;Samples;Min_cycle;Max_cycle;Signal;HPM_P1;HPM_P2
2021/08/10 00:02:25;;;;;;;;;12.00;11.00;;;;;23.93;54.02;99128.03;6094750;28;96687;-58
2021/08/10 00:05:29;;;;;;;;;14.00;12.00;;;;;23.91;54.01;99130.25;6110043;28;96371;-59
2021/08/10 00:08:33;;;;;;;;;12.00;11.20;;;;;23.92;54.04;99131.06;6114361;28;97560;-58
2021/08/10 00:11:38;;;;;;;;;14.00;13.00;;;;;23.97;54.11;99123.53;6115249;28;96629;-58
2021/08/10 00:14:41;;;;;;;;;13.00;12.80;;;;;23.92;54.01;99109.03;6083478;28;97530;-58
2021/08/10 00:17:44;;;;;;;;;11.60;11.00;;;;;24.00;53.96;99124.84;6114867;28;96707;-59
2021/08/10 00:20:50;;;;;;;;;13.00;12.40;;;;;24.05;53.87;99138.53;6115067;28;97045;-58
2021/08/10 00:23:53;;;;;;;;;12.60;12.00;;;;;23.99;53.93;99126.00;6118252;28;97202;-59
2021/08/10 00:27:00;;;;;;;;;10.00;9.40;;;;;23.87;53.97;99103.63;6101696;28;96743;-60
2021/08/10 00:30:04;;;;;;;;;12.00;11.00;;;;;23.77;53.98;99090.88;6105623;28;97205;-58
2021/08/10 00:33:08;;;;;;;;;12.00;11.00;;;;;23.77;54.16;99084.53;6116141;28;96663;-58
2021/08/10 00:36:12;;;;;;;;;12.80;12.00;;;;;23.79;54.37;99077.63;6101463;28;97090;-59
2021/08/10 00:39:16;;;;;;;;;13.00;11.00;;;;;23.77;54.17;99079.03;6107039;28;96904;-60
2021/08/10 00:42:21;;;;;;;;;13.00;13.00;;;;;23.77;54.30;99071.59;6109281;28;96505;-59
2021/08/10 00:45:25;;;;;;;;;10.60;10.00;;;;;23.78;54.47;99069.66;6091640;28;97092;-59
2021/08/10 00:48:29;;;;;;;;;12.00;11.00;;;;;23.79;54.05;99080.38;6108858;28;97485;-60
2021/08/10 00:51:35;;;;;;;;;12.40;11.00;;;;;23.68;54.44;99081.69;6101707;28;96711;-60
2021/08/10 00:54:45;;;;;;;;;12.25;11.00;;;;;23.72;54.34;99088.19;6102009;28;97493;-60
2021/08/10 00:57:51;;;;;;;;;13.60;12.00;;;;;23.76;54.52;99075.47;6095597;28;96645;-59
2021/08/10 01:00:55;;;;;;;;;12.60;11.60;;;;;23.77;54.89;99076.28;6098483;28;96770;-59
2021/08/10 01:03:58;;;;;;;;;14.00;13.00;;;;;23.79;54.51;99087.81;6113866;28;96680;-60
2021/08/10 01:07:13;;;;;;;;;15.75;13.75;;;;;23.73;54.35;99092.59;6095301;28;97557;-58
2021/08/10 01:10:33;;;;;;;;;18.00;16.40;;;;;23.74;54.45;99095.06;6108853;28;96621;-59
2021/08/10 01:13:42;;;;;;;;;14.40;14.20;;;;;23.77;54.72;99092.81;6087695;28;97777;-59
2021/08/10 01:16:51;;;;;;;;;14.00;13.00;;;;;23.79;54.73;99094.16;6116075;28;97446;-58
2021/08/10 01:20:37;;;;;;;;;18.40;16.40;;;;;23.82;54.61;99084.44;6082521;28;97474;-58
2021/08/10 01:23:43;;;;;;;;;18.60;17.60;;;;;23.62;54.85;99066.38;6072294;28;98619;-58
2021/08/10 01:27:01;;;;;;;;;21.00;19.00;;;;;23.79;54.68;99083.13;6088419;28;97519;-59
2021/08/10 01:30:13;;;;;;;;;18.60;17.60;;;;;23.82;54.83;99088.03;6101539;28;96692;-59
2021/08/10 01:33:19;;;;;;;;;18.00;16.20;;;;;23.85;54.97;99084.66;6112450;28;97178;-59
2021/08/10 01:36:24;;;;;;;;;19.00;18.00;;;;;23.84;54.83;99090.47;6104343;28;96702;-58
2021/08/10 01:39:30;;;;;;;;;18.00;17.60;;;;;23.88;54.54;99097.00;6107144;28;97493;-58
2021/08/10 01:42:38;;;;;;;;;19.00;16.00;;;;;23.69;54.57;99048.34;6099427;28;97338;-58
2021/08/10 01:45:44;;;;;;;;;15.00;15.00;;;;;23.97;54.52;99082.22;6105330;28;96707;-59
2021/08/10 01:48:55;;;;;;;;;19.00;15.20;;;;;24.00;54.56;99083.53;6111473;28;97594;-58
2021/08/10 01:52:01;;;;;;;;;15.80;14.80;;;;;24.00;54.09;99086.31;6074489;28;97599;-60
2021/08/10 01:55:06;;;;;;;;;16.40;16.00;;;;;23.96;54.37;99090.78;6102496;28;97401;-59
2021/08/10 01:58:13;;;;;;;;;17.60;17.60;;;;;23.95;54.39;99098.22;6094062;28;97631;-58
2021/08/10 02:01:18;;;;;;;;;20.50;19.50;;;;;24.01;54.35;99097.03;6079841;28;99024;-58
2021/08/10 02:04:24;;;;;;;;;17.80;15.00;;;;;24.04;54.47;99088.13;6087881;28;97633;-60
2021/08/10 02:07:32;;;;;;;;;17.20;16.00;;;;;24.05;54.22;99092.53;6088621;28;96895;-59
2021/08/10 02:10:37;;;;;;;;;19.00;18.00;;;;;24.01;54.12;99090.69;6094222;28;97582;-59
2021/08/10 02:13:41;;;;;;;;;18.20;17.00;;;;;23.94;54.53;99095.81;6117544;28;96470;-59
2021/08/10 02:16:45;;;;;;;;;14.60;13.60;;;;;23.85;54.31;99092.91;6092050;28;97714;-58
2021/08/10 02:19:55;;;;;;;;;14.00;13.00;;;;;23.68;54.57;99092.69;6107583;28;97458;-60
2021/08/10 02:23:00;;;;;;;;;14.40;14.00;;;;;23.64;54.44;99086.97;6102017;28;96585;-58
2021/08/10 02:26:05;;;;;;;;;14.40;12.00;;;;;23.62;54.21;99089.19;6095028;28;96622;-58
2021/08/10 02:29:11;;;;;;;;;13.80;12.20;;;;;23.68;54.82;99079.75;6104307;28;97234;-58
2021/08/10 02:32:20;;;;;;;;;10.60;9.60;;;;;23.67;54.46;99075.34;6108041;28;97673;-59
2021/08/10 02:35:28;;;;;;;;;13.00;13.00;;;;;23.71;54.73;99086.56;6114879;28;97492;-60
2021/08/10 02:38:34;;;;;;;;;15.20;13.80;;;;;23.68;54.67;99073.41;6111192;28;97431;-58
2021/08/10 02:41:40;;;;;;;;;14.60;13.00;;;;;23.63;54.90;99076.25;6117692;28;97089;-58
2021/08/10 02:44:47;;;;;;;;;13.60;13.20;;;;;23.66;54.61;99065.44;6111907;28;96448;-58
2021/08/10 02:47:55;;;;;;;;;15.00;15.00;;;;;23.68;55.14;99073.41;6103060;28;97549;-58
2021/08/10 02:51:03;;;;;;;;;14.00;13.00;;;;;23.73;55.19;99082.41;6115909;28;97597;-60
2021/08/10 02:54:09;;;;;;;;;18.00;14.00;;;;;23.79;55.09;99080.38;6107547;28;97459;-59
2021/08/10 02:57:17;;;;;;;;;15.60;14.60;;;;;23.83;54.72;99075.91;6106617;28;98038;-58
2021/08/10 03:00:24;;;;;;;;;16.00;14.00;;;;;23.86;54.77;99069.78;6118001;28;97524;-60
2021/08/10 03:03:33;;;;;;;;;14.20;13.80;;;;;23.89;54.66;99068.38;6101723;28;96651;-58
2021/08/10 03:06:43;;;;;;;;;16.00;15.00;;;;;23.91;54.43;99069.69;6102369;28;97391;-59
2021/08/10 03:09:53;;;;;;;;;14.00;14.00;;;;;23.94;54.40;99069.09;6113089;28;97558;-59
2021/08/10 03:13:00;;;;;;;;;12.00;11.00;;;;;23.96;54.48;99077.03;6115875;28;97247;-60
2021/08/10 03:16:07;;;;;;;;;13.20;12.20;;;;;23.97;54.43;99076.72;6106102;28;97691;-59
2021/08/10 03:19:16;;;;;;;;;14.00;14.00;;;;;24.02;54.42;99076.63;6101624;28;96577;-57
2021/08/10 03:22:25;;;;;;;;;15.00;14.00;;;;;24.06;54.18;99079.59;6084853;28;97569;-58
2021/08/10 03:25:31;;;;;;;;;14.60;14.00;;;;;23.98;54.50;99075.59;6105702;28;97362;-58
2021/08/10 03:28:40;;;;;;;;;12.40;12.00;;;;;23.93;54.39;99063.88;6113624;28;96526;-60
2021/08/10 03:31:45;;;;;;;;;13.00;12.00;;;;;23.82;54.84;99066.00;6106962;28;97326;-60
2021/08/10 03:34:53;;;;;;;;;11.80;11.00;;;;;23.72;54.95;99075.25;6080734;28;96705;-58
2021/08/10 03:37:58;;;;;;;;;11.00;10.40;;;;;23.69;54.95;99077.81;6111177;28;96753;-58
2021/08/10 03:41:03;;;;;;;;;9.50;9.50;;;;;23.68;54.54;99085.25;6113946;28;96623;-60
2021/08/10 03:44:06;;;;;;;;;12.00;11.60;;;;;23.67;54.69;99074.53;6099452;28;97201;-58
2021/08/10 03:47:11;;;;;;;;;13.00;12.00;;;;;23.66;54.94;99070.97;6113339;28;96719;-58
2021/08/10 03:50:16;;;;;;;;;14.60;13.60;;;;;23.68;55.14;99073.41;6119681;28;96766;-58
2021/08/10 03:53:21;;;;;;;;;12.00;11.00;;;;;23.66;55.01;99078.41;6104655;28;97248;-59
2021/08/10 03:56:27;;;;;;;;;12.00;12.00;;;;;23.67;55.05;99078.09;6081107;28;96671;-60
2021/08/10 03:59:33;;;;;;;;;14.00;13.00;;;;;23.73;55.45;99078.84;6113732;28;96997;-58
2021/08/10 04:02:40;;;;;;;;;15.00;15.00;;;;;23.80;55.02;99070.97;6091795;28;96781;-57
2021/08/10 04:05:51;;;;;;;;;15.00;13.75;;;;;23.84;55.15;99073.97;6096665;28;96662;-57
2021/08/10 04:08:56;;;;;;;;;15.25;15.00;;;;;23.89;55.19;99079.38;6086424;28;96642;-57
2021/08/10 04:12:00;;;;;;;;;15.00;14.60;;;;;23.91;55.23;99077.13;6082799;28;96717;-58
2021/08/10 04:15:04;;;;;;;;;15.20;14.20;;;;;23.94;55.08;99090.28;6113657;28;98095;-57
2021/08/10 04:18:14;;;;;;;;;15.00;13.00;;;;;23.97;54.92;99086.91;6101378;28;96779;-57
2021/08/10 04:21:21;;;;;;;;;13.40;12.40;;;;;23.99;55.03;99095.72;6092300;28;97422;-57
2021/08/10 04:24:25;;;;;;;;;12.20;11.80;;;;;23.85;54.75;99092.91;6103172;28;97476;-58
2021/08/10 04:27:29;;;;;;;;;12.00;12.00;;;;;23.79;54.85;99093.31;6112104;28;96788;-59
2021/08/10 04:30:37;;;;;;;;;12.00;11.50;;;;;23.73;55.11;99098.94;6112217;28;96641;-59
2021/08/10 04:33:40;;;;;;;;;12.00;11.00;;;;;23.71;54.85;99098.41;6104054;28;96735;-56
2021/08/10 04:36:43;;;;;;;;;12.00;11.00;;;;;23.68;55.27;99109.19;6095373;28;97936;-57
2021/08/10 04:39:48;;;;;;;;;13.00;12.00;;;;;23.62;55.21;99107.66;6114371;28;97627;-58
2021/08/10 04:43:00;;;;;;;;;11.60;11.00;;;;;23.59;55.79;99100.84;6096171;28;97286;-56
2021/08/10 04:46:04;;;;;;;;;12.00;12.00;;;;;23.54;55.82;99092.66;6101893;28;97559;-58
2021/08/10 04:49:08;;;;;;;;;12.00;11.40;;;;;23.54;55.61;99091.84;6113169;28;96597;-58
2021/08/10 04:52:13;;;;;;;;;12.00;12.00;;;;;23.51;55.93;99071.22;6102710;28;97131;-59
2021/08/10 04:55:18;;;;;;;;;12.00;11.20;;;;;23.69;56.01;99083.31;6104864;28;96717;-57
2021/08/10 04:58:23;;;;;;;;;14.50;14.00;;;;;23.67;55.72;99069.84;6102018;28;96615;-59
2021/08/10 05:01:26;;;;;;;;;16.00;16.00;;;;;23.81;55.70;99071.78;6101031;28;98965;-58
2021/08/10 05:04:32;;;;;;;;;16.40;15.00;;;;;23.90;55.71;99069.97;6115498;28;97571;-58
2021/08/10 05:07:36;;;;;;;;;15.20;14.20;;;;;24.01;55.56;99069.47;6106904;28;98656;-57
2021/08/10 05:10:44;;;;;;;;;15.50;14.00;;;;;24.06;54.92;99063.88;6113933;28;97416;-58
2021/08/10 05:13:52;;;;;;;;;15.00;13.00;;;;;24.23;54.06;99070.75;6098511;28;97512;-57
2021/08/10 05:16:56;;;;;;;;;16.60;16.00;;;;;24.26;53.97;99065.44;6117423;28;96703;-57
2021/08/10 05:20:00;;;;;;;;;16.00;16.00;;;;;24.23;53.94;99070.75;6116115;28;96687;-57
2021/08/10 05:23:05;;;;;;;;;18.00;16.00;;;;;24.22;53.81;99085.63;6083075;28;96741;-58
2021/08/10 05:26:12;;;;;;;;;18.00;17.00;;;;;24.15;54.00;99097.84;6105170;28;96965;-57
2021/08/10 05:29:19;;;;;;;;;22.00;21.60;;;;;24.26;53.97;99101.25;6113057;28;97667;-59
2021/08/10 05:32:23;;;;;;;;;20.80;20.00;;;;;24.29;53.63;99094.31;6108677;28;97541;-57
2021/08/10 05:35:27;;;;;;;;;20.00;18.00;;;;;24.26;53.74;99092.16;6088353;28;97044;-59
2021/08/10 05:38:30;;;;;;;;;14.40;13.60;;;;;24.48;53.68;99100.53;6109088;28;97163;-57
2021/08/10 05:41:38;;;;;;;;;16.80;15.00;;;;;24.71;52.97;99109.69;6089123;28;97301;-59
2021/08/10 05:44:42;;;;;;;;;13.00;13.00;;;;;24.94;51.98;99108.66;6115472;28;96711;-59
2021/08/10 05:47:47;;;;;;;;;15.50;13.00;;;;;25.05;51.32;99100.97;6105636;28;97035;-57
2021/08/10 05:50:52;;;;;;;;;13.00;13.00;;;;;25.05;51.06;99088.00;6101103;28;97085;-56
2021/08/10 05:53:55;;;;;;;;;14.00;13.00;;;;;24.98;51.06;99093.09;6107044;28;97376;-58
2021/08/10 05:57:00;;;;;;;;;13.00;13.00;;;;;25.21;51.00;99085.69;6099134;28;98123;-56
2021/08/10 06:00:04;;;;;;;;;13.75;13.00;;;;;25.29;50.33;99099.53;6117623;28;96651;-57
2021/08/10 06:03:23;;;;;;;;;14.40;12.40;;;;;25.39;50.40;99102.06;6107764;28;99107;-58
2021/08/10 06:06:26;;;;;;;;;15.80;14.00;;;;;25.33;49.83;99094.22;6089991;28;97149;-58
2021/08/10 06:09:30;;;;;;;;;15.00;14.00;;;;;25.48;50.24;99099.34;6100340;28;96896;-57
2021/08/10 06:12:35;;;;;;;;;13.50;12.00;;;;;25.65;50.43;99110.56;6112346;28;96972;-58
2021/08/10 06:15:39;;;;;;;;;14.00;13.00;;;;;25.55;50.45;99113.56;6098542;28;98207;-56
2021/08/10 06:18:44;;;;;;;;;14.00;14.00;;;;;25.77;49.76;99119.06;6103089;28;96662;-58
2021/08/10 06:21:54;;;;;;;;;13.40;13.40;;;;;26.01;50.03;99138.03;6095531;28;96647;-58
2021/08/10 06:25:05;;;;;;;;;13.33;12.33;;;;;26.26;49.43;99111.69;6081533;28;97409;-59
2021/08/10 06:28:09;;;;;;;;;13.20;13.00;;;;;26.21;49.03;99109.91;6092523;28;98662;-57
2021/08/10 06:31:16;;;;;;;;;13.00;12.40;;;;;26.38;49.40;99114.69;6098923;28;97521;-57
2021/08/10 06:34:20;;;;;;;;;13.00;13.00;;;;;26.57;48.58;99104.16;6099324;28;98622;-58
2021/08/10 06:37:23;;;;;;;;;11.40;11.00;;;;;26.70;48.42;99105.97;6092937;28;97214;-57
2021/08/10 06:40:28;;;;;;;;;16.60;13.00;;;;;26.79;47.62;99103.22;6107003;28;96484;-56
2021/08/10 06:43:33;;;;;;;;;12.25;12.00;;;;;26.99;47.36;99094.31;6104216;28;98002;-57
2021/08/10 06:46:55;;;;;;;;;11.00;11.00;;;;;27.09;46.64;99107.03;6087386;28;96784;-58
2021/08/10 06:50:02;;;;;;;;;12.80;10.80;;;;;27.23;46.40;99123.47;6115890;28;96695;-57
2021/08/10 06:53:08;;;;;;;;;11.00;10.80;;;;;27.44;46.34;99113.38;6100861;28;96519;-58
2021/08/10 06:56:27;;;;;;;;;13.00;12.00;;;;;27.67;46.16;99108.47;6100124;28;97455;-58
2021/08/10 06:59:35;;;;;;;;;10.00;9.75;;;;;27.78;45.58;99082.06;6109332;28;97426;-57
2021/08/10 07:02:40;;;;;;;;;10.60;10.00;;;;;28.07;44.89;99106.25;6102303;28;96746;-58
2021/08/10 07:05:45;;;;;;;;;11.00;9.00;;;;;28.23;45.34;99110.97;6106541;28;97547;-57
2021/08/10 07:08:53;;;;;;;;;10.00;10.00;;;;;28.32;44.50;99122.84;6098286;28;97297;-59
2021/08/10 07:11:57;;;;;;;;;8.00;8.00;;;;;28.22;43.96;99086.34;6107674;28;96439;-58
2021/08/10 07:15:02;;;;;;;;;10.00;9.00;;;;;28.33;43.65;99088.41;6098978;28;96721;-57
2021/08/10 07:18:06;;;;;;;;;10.00;9.60;;;;;28.59;43.28;99104.91;6106836;28;96573;-59
2021/08/10 07:21:10;;;;;;;;;9.00;8.00;;;;;28.79;42.58;99106.13;6102349;28;97481;-59
2021/08/10 07:24:19;;;;;;;;;11.50;11.00;;;;;28.91;42.72;99108.97;6117377;28;97400;-58
2021/08/10 07:27:25;;;;;;;;;8.40;8.00;;;;;29.01;42.90;99116.91;6115947;28;97533;-58
2021/08/10 07:30:30;;;;;;;;;9.00;8.60;;;;;29.23;42.31;99111.00;6100395;28;97641;-58
2021/08/10 07:33:34;;;;;;;;;8.00;7.00;;;;;29.44;41.46;99124.91;6092133;28;97113;-58
2021/08/10 07:36:43;;;;;;;;;9.40;9.00;;;;;29.69;41.14;99109.97;6101365;28;97353;-57
2021/08/10 07:39:46;;;;;;;;;8.00;8.00;;;;;29.83;41.22;99114.41;6114837;28;97525;-58
2021/08/10 07:42:55;;;;;;;;;6.00;5.00;;;;;29.94;40.89;99091.44;6088374;28;97581;-58
2021/08/10 07:46:00;;;;;;;;;6.00;6.00;;;;;30.42;41.83;99112.09;6112591;28;97567;-59
2021/08/10 07:49:04;;;;;;;;;7.40;6.40;;;;;30.73;40.95;99108.75;6075735;28;96643;-57
2021/08/10 07:52:07;;;;;;;;;9.00;8.00;;;;;30.77;39.60;99092.97;6114609;28;96664;-59
2021/08/10 07:55:11;;;;;;;;;7.00;7.00;;;;;30.91;39.45;99094.22;6106582;28;96873;-59
2021/08/10 07:58:14;;;;;;;;;8.00;7.00;;;;;30.89;38.47;99098.50;6092078;28;96936;-57
2021/08/10 08:01:19;;;;;;;;;8.00;7.25;;;;;30.87;38.93;99104.44;6121645;28;97206;-58
2021/08/10 08:04:23;;;;;;;;;8.20;7.20;;;;;30.94;38.81;99106.63;6114431;28;96941;-57
2021/08/10 08:07:27;;;;;;;;;7.50;7.50;;;;;31.04;38.18;99097.81;6105366;28;97300;-57
2021/08/10 08:10:31;;;;;;;;;8.00;7.00;;;;;31.26;38.44;99088.94;6105712;28;97230;-58
2021/08/10 08:13:55;;;;;;;;;9.40;9.00;;;;;31.23;37.87;99072.09;6111961;28;98194;-59
2021/08/10 08:17:00;;;;;;;;;7.60;6.40;;;;;31.55;38.44;99090.56;6109168;28;97142;-57
2021/08/10 08:20:04;;;;;;;;;7.00;6.40;;;;;31.75;36.79;99088.75;6118873;28;97448;-57
2021/08/10 08:23:07;;;;;;;;;8.50;8.00;;;;;32.03;37.44;99086.72;6091410;28;97894;-58
2021/08/10 08:26:11;;;;;;;;;7.00;7.00;;;;;31.98;37.37;99088.94;6107489;28;97563;-59
2021/08/10 08:29:17;;;;;;;;;8.20;7.60;;;;;32.02;37.90;99078.69;6109720;28;97481;-57
2021/08/10 08:32:22;;;;;;;;;6.00;6.00;;;;;32.17;36.88;99075.13;6100338;28;97249;-57
2021/08/10 08:35:25;;;;;;;;;6.00;6.00;;;;;32.30;36.82;99075.88;6109302;28;97660;-58
2021/08/10 08:38:29;;;;;;;;;7.00;7.00;;;;;32.24;36.56;99053.00;6109962;28;96743;-57
2021/08/10 08:41:33;;;;;;;;;7.20;7.20;;;;;32.50;36.44;99064.38;6098892;28;97563;-59
2021/08/10 08:44:36;;;;;;;;;7.25;7.25;;;;;32.63;36.07;99065.09;6111044;28;96895;-58
2021/08/10 08:47:51;;;;;;;;;6.00;6.00;;;;;32.73;35.56;99058.16;6113948;28;97463;-59
2021/08/10 08:50:56;;;;;;;;;7.00;7.00;;;;;32.84;35.70;99056.44;6114605;28;97472;-57
2021/08/10 08:54:02;;;;;;;;;8.00;8.00;;;;;32.94;36.23;99062.22;6107197;28;97692;-59
2021/08/10 08:57:11;;;;;;;;;7.00;7.00;;;;;33.28;36.62;99049.41;6076913;28;98026;-59
2021/08/10 09:00:17;;;;;;;;;6.60;6.00;;;;;33.65;35.98;99057.31;6102979;28;97035;-57
2021/08/10 09:03:24;;;;;;;;;7.80;7.80;;;;;33.65;34.21;99054.53;6108155;28;97707;-57
2021/08/10 09:06:28;;;;;;;;;8.20;7.00;;;;;33.74;34.38;99049.53;6120848;28;97870;-59
2021/08/10 09:09:32;;;;;;;;;7.00;6.50;;;;;33.87;34.09;99046.19;6104752;28;97504;-57
2021/08/10 09:12:47;;;;;;;;;8.00;8.00;;;;;33.99;34.18;99053.59;6094890;28;97605;-58
2021/08/10 09:15:52;;;;;;;;;8.00;8.00;;;;;34.18;34.43;99038.75;6105671;28;97454;-57
2021/08/10 09:18:58;;;;;;;;;8.60;8.00;;;;;34.32;33.69;99034.19;6107064;28;96722;-57
2021/08/10 09:22:13;;;;;;;;;7.00;6.00;;;;;34.64;34.05;99043.06;6106990;28;97378;-57
2021/08/10 09:25:17;;;;;;;;;9.00;8.00;;;;;34.97;34.13;99027.53;6109689;28;96877;-57
2021/08/10 09:28:32;;;;;;;;;9.00;8.00;;;;;35.27;33.35;99031.16;6105163;28;97624;-57
2021/08/10 09:31:39;;;;;;;;;9.00;9.00;;;;;35.61;32.21;99031.94;6097715;28;96534;-59
2021/08/10 09:34:47;;;;;;;;;8.60;8.00;;;;;35.27;31.39;99035.94;6085811;28;97225;-58
2021/08/10 09:38:09;;;;;;;;;7.00;7.00;;;;;35.32;32.46;99039.22;6083938;28;96713;-57
2021/08/10 09:41:14;;;;;;;;;9.00;8.00;;;;;35.43;32.51;99030.94;6059823;28;97813;-57
2021/08/10 09:44:18;;;;;;;;;8.00;8.00;;;;;35.71;32.50;99022.03;6097072;28;97478;-57
2021/08/10 09:47:30;;;;;;;;;7.33;7.33;;;;;36.00;31.50;99021.09;6073671;28;96766;-59
2021/08/10 09:50:35;;;;;;;;;9.00;9.00;;;;;35.90;30.74;99019.81;6072144;28;97858;-57
2021/08/10 09:53:39;;;;;;;;;8.40;7.80;;;;;35.85;31.38;99022.97;6077775;28;97666;-59
2021/08/10 09:56:50;;;;;;;;;8.60;8.60;;;;;35.95;31.51;99021.47;6070847;28;97453;-59
2021/08/10 09:59:53;;;;;;;;;7.75;7.75;;;;;36.02;30.79;99016.72;6068397;28;98547;-59
2021/08/10 10:03:22;;;;;;;;;8.80;7.80;;;;;36.11;30.69;99012.78;6058721;28;97199;-59
2021/08/10 10:06:35;;;;;;;;;9.00;8.00;;;;;36.34;30.44;99016.19;6072184;28;97522;-58
2021/08/10 10:09:39;;;;;;;;;8.00;7.40;;;;;36.70;30.58;99014.47;6071104;28;97388;-59
2021/08/10 10:12:45;;;;;;;;;7.50;7.50;;;;;36.80;29.27;99016.53;6072178;28;98635;-57
2021/08/10 10:15:50;;;;;;;;;9.00;8.00;;;;;37.01;30.23;99004.56;6073949;28;97482;-58
2021/08/10 10:18:54;;;;;;;;;7.00;7.00;;;;;37.24;29.04;99011.50;6078642;28;96621;-58
2021/08/10 10:22:04;;;;;;;;;7.00;7.00;;;;;37.45;29.59;99012.75;6095300;28;96848;-58
2021/08/10 10:25:08;;;;;;;;;7.60;7.00;;;;;37.75;29.43;99010.44;6073412;28;97427;-59
2021/08/10 10:28:13;;;;;;;;;8.00;8.00;;;;;37.83;28.30;99012.06;6087352;28;98166;-57
2021/08/10 10:31:17;;;;;;;;;7.00;7.00;;;;;37.73;28.63;99010.84;6094070;28;97364;-59
2021/08/10 10:34:23;;;;;;;;;7.00;7.00;;;;;37.38;27.51;99004.31;6094448;28;97574;-59
2021/08/10 10:37:30;;;;;;;;;7.00;6.00;;;;;37.37;29.40;99006.34;6118410;28;96597;-57
2021/08/10 10:40:34;;;;;;;;;7.00;7.00;;;;;37.04;28.39;98998.97;6117631;28;96774;-57
2021/08/10 10:43:38;;;;;;;;;8.00;7.00;;;;;36.54;29.20;98999.88;6118385;28;97434;-59
2021/08/10 10:46:41;;;;;;;;;7.00;7.00;;;;;36.45;28.96;98992.63;6113550;28;96651;-58
2021/08/10 10:49:45;;;;;;;;;7.00;6.00;;;;;36.27;29.70;98985.25;6117953;28;97486;-58
2021/08/10 10:53:22;;;;;;;;;7.00;7.00;;;;;36.17;29.83;98955.09;6088141;28;97392;-56
2021/08/10 10:56:34;;;;;;;;;8.00;7.00;;;;;36.10;29.54;98981.09;6116976;28;97063;-58
2021/08/10 10:59:38;;;;;;;;;8.00;7.00;;;;;36.09;29.57;98973.06;6118727;28;96607;-57
2021/08/10 11:02:42;;;;;;;;;6.00;5.60;;;;;36.24;30.87;98961.59;6117252;28;96995;-57
2021/08/10 11:05:46;;;;;;;;;8.20;7.80;;;;;36.34;29.26;98971.28;6117103;28;96680;-59
2021/08/10 11:08:50;;;;;;;;;6.00;5.80;;;;;36.35;29.34;98964.47;6118547;28;97010;-58
2021/08/10 11:11:55;;;;;;;;;7.00;7.00;;;;;35.86;29.00;98964.88;6116720;28;97525;-58
2021/08/10 11:14:59;;;;;;;;;7.00;6.00;;;;;35.67;29.31;98967.91;6112729;28;97581;-58
2021/08/10 11:18:23;;;;;;;;;6.60;6.00;;;;;35.55;29.53;98954.94;6102032;28;97804;-56
2021/08/10 11:21:27;;;;;;;;;7.60;7.60;;;;;35.45;29.91;98930.41;6091470;28;97307;-56
2021/08/10 11:24:35;;;;;;;;;7.00;7.00;;;;;35.98;30.00;98947.72;6118098;28;96524;-56
2021/08/10 11:27:41;;;;;;;;;7.00;7.00;;;;;36.15;30.69;98946.28;6117164;28;97614;-58
2021/08/10 11:30:48;;;;;;;;;8.00;7.00;;;;;36.35;29.86;98956.84;6116601;28;97373;-56
2021/08/10 11:33:51;;;;;;;;;6.00;6.00;;;;;36.15;29.53;98951.88;6115374;28;96654;-58
2021/08/10 11:37:23;;;;;;;;;7.00;6.67;;;;;36.08;29.50;98947.00;6097795;28;97412;-59
2021/08/10 11:40:36;;;;;;;;;5.00;5.00;;;;;36.34;30.40;98940.38;6116672;28;98000;-57
2021/08/10 11:43:42;;;;;;;;;5.00;5.00;;;;;36.38;28.34;98944.81;6117004;28;97810;-57
2021/08/10 11:46:47;;;;;;;;;5.60;5.00;;;;;36.36;27.87;98940.81;6117350;28;97452;-57
2021/08/10 11:49:54;;;;;;;;;6.00;6.00;;;;;36.63;28.19;98932.94;6117722;28;97457;-58
2021/08/10 11:52:57;;;;;;;;;6.00;5.60;;;;;36.74;27.29;98936.63;6114024;28;97900;-59
2021/08/10 11:56:02;;;;;;;;;7.40;7.00;;;;;36.72;27.78;98930.56;6116058;28;98100;-59
2021/08/10 11:59:09;;;;;;;;;6.00;6.00;;;;;36.65;27.84;98930.56;6102048;28;97505;-58
2021/08/10 12:02:12;;;;;;;;;6.00;6.00;;;;;36.83;27.08;98928.63;6118104;28;96435;-59
2021/08/10 12:05:16;;;;;;;;;6.00;6.00;;;;;37.08;26.73;98921.09;6117240;28;97276;-59
2021/08/10 12:08:25;;;;;;;;;7.00;7.00;;;;;37.12;26.67;98909.88;6116425;28;96985;-57
2021/08/10 12:11:31;;;;;;;;;6.00;6.00;;;;;37.18;27.81;98919.53;6117526;28;96642;-57
2021/08/10 12:14:35;;;;;;;;;6.00;6.00;;;;;37.33;27.33;98923.97;6115510;28;96537;-59
2021/08/10 12:17:54;;;;;;;;;7.00;7.00;;;;;37.15;27.52;98921.09;6117169;28;96432;-58
2021/08/10 12:21:00;;;;;;;;;5.60;5.60;;;;;36.77;27.27;98916.94;6116036;28;98040;-58
2021/08/10 12:24:04;;;;;;;;;6.00;5.00;;;;;36.49;27.93;98908.38;6129842;28;96761;-57
2021/08/10 12:27:11;;;;;;;;;7.00;7.00;;;;;36.04;28.58;98895.66;6115289;28;96682;-59
2021/08/10 12:30:15;;;;;;;;;7.00;7.00;;;;;35.75;29.02;98891.84;6105773;28;96810;-58
2021/08/10 12:33:23;;;;;;;;;6.00;6.00;;;;;35.75;29.11;98886.22;6115642;28;97487;-58
2021/08/10 12:36:27;;;;;;;;;6.60;6.60;;;;;35.78;29.05;98879.03;6069403;28;97438;-59
2021/08/10 12:39:31;;;;;;;;;6.00;5.20;;;;;35.86;28.06;98870.28;6089758;28;96535;-60
2021/08/10 12:42:39;;;;;;;;;7.00;7.00;;;;;36.26;30.20;98874.19;6090118;28;96791;-58
2021/08/10 12:45:42;;;;;;;;;5.00;5.00;;;;;36.47;26.63;98868.63;6091372;28;97354;-58
2021/08/10 12:48:45;;;;;;;;;6.00;6.00;;;;;36.76;27.10;98867.56;6075121;28;97287;-60
2021/08/10 12:51:54;;;;;;;;;5.20;5.20;;;;;36.98;25.70;98864.84;6091487;28;97863;-57
2021/08/10 12:55:00;;;;;;;;;6.00;6.00;;;;;37.20;25.86;98853.25;6089819;28;97208;-60
2021/08/10 12:58:05;;;;;;;;;6.75;6.00;;;;;37.39;26.22;98840.81;6092995;28;96512;-58
2021/08/10 13:01:08;;;;;;;;;5.00;5.00;;;;;37.49;25.70;98845.63;6091593;28;97530;-58
2021/08/10 13:04:13;;;;;;;;;6.00;6.00;;;;;37.48;25.29;98838.41;6092191;28;96456;-58
2021/08/10 13:07:17;;;;;;;;;5.00;5.00;;;;;37.39;25.99;98835.16;6091730;28;96625;-57
2021/08/10 13:10:29;;;;;;;;;5.00;5.00;;;;;37.43;26.56;98827.56;6091577;28;97591;-57
2021/08/10 13:13:33;;;;;;;;;6.00;6.00;;;;;37.48;24.33;98823.53;6091235;28;97725;-56
2021/08/10 13:16:39;;;;;;;;;6.60;6.60;;;;;37.42;23.68;98806.25;6091666;28;97504;-57
2021/08/10 13:20:02;;;;;;;;;4.00;4.00;;;;;37.46;23.08;98807.06;6093406;28;96463;-56
2021/08/10 13:23:14;;;;;;;;;5.00;5.00;;;;;37.37;24.42;98803.06;6093007;28;97228;-56
2021/08/10 13:26:17;;;;;;;;;6.00;6.00;;;;;37.36;23.82;98796.63;6093044;28;96983;-56
2021/08/10 13:29:37;;;;;;;;;7.00;6.00;;;;;37.43;22.97;98796.63;6093027;28;96405;-58
2021/08/10 13:32:41;;;;;;;;;5.00;5.00;;;;;37.42;23.63;98788.59;6091260;28;96471;-58
2021/08/10 13:35:45;;;;;;;;;6.00;5.20;;;;;37.25;23.18;98768.50;6110120;28;96559;-56
2021/08/10 13:38:48;;;;;;;;;6.00;5.50;;;;;37.42;24.43;98778.13;6116579;28;97412;-58
2021/08/10 13:41:52;;;;;;;;;6.00;6.00;;;;;37.30;23.18;98775.72;6114630;28;96873;-58
2021/08/10 13:44:56;;;;;;;;;5.75;5.00;;;;;37.29;23.99;98777.72;6114628;28;98658;-58
2021/08/10 13:48:13;;;;;;;;;6.00;6.00;;;;;37.39;24.00;98770.50;6116684;28;97290;-58
2021/08/10 13:51:16;;;;;;;;;4.40;4.40;;;;;37.14;23.13;98762.06;6121019;28;97665;-56
2021/08/10 13:54:19;;;;;;;;;6.00;6.00;;;;;36.88;24.21;98757.63;6118958;28;96566;-58
2021/08/10 13:57:24;;;;;;;;;6.00;5.00;;;;;36.67;25.02;98757.59;6120983;28;97687;-56
2021/08/10 14:00:29;;;;;;;;;6.00;6.00;;;;;36.57;25.71;98749.91;6120048;28;96667;-57
2021/08/10 14:03:35;;;;;;;;;5.40;5.40;;;;;36.59;25.61;98753.16;6119071;28;96406;-58
2021/08/10 14:06:44;;;;;;;;;6.00;5.00;;;;;36.63;24.46;98748.38;6118534;28;97728;-57
2021/08/10 14:09:47;;;;;;;;;6.00;6.00;;;;;36.70;25.18;98753.97;6118532;28;97513;-58
2021/08/10 14:12:50;;;;;;;;;7.00;6.00;;;;;36.62;24.55;98751.56;6119670;28;96792;-56
2021/08/10 14:15:55;;;;;;;;;6.00;6.00;;;;;36.71;24.88;98738.75;6118566;28;96740;-57
2021/08/10 14:18:59;;;;;;;;;6.00;5.00;;;;;36.65;24.50;98734.75;6119028;28;97570;-57
2021/08/10 14:22:03;;;;;;;;;5.00;5.00;;;;;36.68;25.05;98735.94;6119361;28;96572;-56
2021/08/10 14:25:07;;;;;;;;;6.00;5.50;;;;;36.69;25.17;98732.72;6119810;28;97026;-57
2021/08/10 14:28:11;;;;;;;;;7.60;7.60;;;;;36.70;25.31;98734.31;6118157;28;98661;-58